This is the latest recevied weather packets stored in our database for station/object LRSV. If no packets are shown the sender has not sent any weather packets the latest 10 day(s).
| Time | Temp. | Humidity | Pressure | Rain* | Wind** | Luminosity | Snow |
|---|---|---|---|---|---|---|---|
| 1778144601 | 22.78° C | 47% | 1014 hPa | - | - | - | - |
| 1778143701 | 22.22° C | 50% | 1014 hPa | - | - | - | - |
| 1778142801 | 22.22° C | 50% | 1014 hPa | - | - | - | - |
| 1778141901 | 21.11° C | 50% | 1014 hPa | - | - | - | - |
| 1778141001 | 21.11° C | 50% | 1014 hPa | - | - | - | - |
| 1778140101 | 20° C | 53% | 1014 hPa | - | - | - | - |
| 1778139200 | 20° C | 53% | 1014 hPa | - | - | - | - |
| 1778138301 | 17.78° C | 60% | 1014 hPa | - | - | - | - |
| 1778137400 | 17.78° C | 60% | 1014 hPa | - | - | - | - |
| 1778136501 | 17.78° C | 60% | 1014 hPa | - | - | - | - |
| 1778135600 | 17.78° C | 60% | 1014 hPa | - | - | - | - |
| 1778134710 | 16.11° C | 63% | 1014 hPa | - | - | - | - |
| 1778133800 | 16.11° C | 63% | 1014 hPa | - | - | - | - |
| 1778132900 | 13.89° C | 67% | 1014 hPa | - | - | - | - |
| 1778132008 | 13.89° C | 67% | 1014 hPa | - | - | - | - |
| 1778131101 | 12.78° C | 72% | 1014 hPa | - | - | - | - |
| 1778130200 | 12.78° C | 72% | 1014 hPa | - | - | - | - |
| 1778129297 | 12.22° C | 77% | 1014 hPa | - | - | - | - |
| 1778128400 | 12.22° C | 77% | 1014 hPa | - | - | - | - |
| 1778127500 | 11.11° C | 82% | 1013 hPa | - | - | - | - |
| 1778126600 | 11.11° C | 82% | 1013 hPa | - | - | - | - |
| 1778125698 | 10° C | 82% | 1013 hPa | - | - | - | - |
| 1778124800 | 10° C | 82% | 1013 hPa | - | - | - | - |
| 1778123900 | 11.11° C | 77% | 1013 hPa | - | - | - | - |
| 1778123001 | 11.11° C | 77% | 1013 hPa | - | - | - | - |
* Rain since midnight (hover to see other rain measurements)
** Current wind speed in m/s (hover to see current wind gust speed)